Discovery — WDI4277 — position and weather

sailwx.info

Track history (hours):
 
Tides and Currents Weather Stations Pressure Air Temp Water Temp Dewpoint Dewpoint Depression Visibility Wind Speed Wind Dir Waves Ship Positions

Discovery

Owner: Central Boat Rentals, Inc, Morgan City, LA. More information available from US FCC via Universal Licensing System and Coast Guard Vessel Documentation Center.

Last reported at 2018-May-14 15:05 UTC. Time now 2018-May-26 10:16 UTC.
Position N 29°34' W 091°28'.
Warning: this ship's position is 11 days out of date.

Length 17 m; draft 2 m.

Type: Tug. MMSI: 367697020.

Date/timePositionNaut miles runAvg speedWind from/ knotsBaromVisibWave heightAir tempDewpointWater temp
2018-May-14 15:05N 29°34' W 091°28'0 0.1
2018-May-14 15:01N 29°34' W 091°28'0 0.0
2018-May-14 14:30N 29°34' W 091°28'2 0.3
2018-May-14 09:17N 29°34' W 091°30'1 2.6
2018-May-14 08:59N 29°35' W 091°30'  
2018-May-08 07:16N 29°40' W 091°06'11 0.3
2018-May-07 00:41N 29°34' W 090°56'1 5.6
2018-May-07 00:30N 29°34' W 090°55'3 5.5
2018-May-06 23:57N 29°32' W 090°52'3 5.6
2018-May-06 23:28N 29°32' W 090°49'2 5.4
2018-May-06 23:01N 29°32' W 090°46'2 4.9
2018-May-06 22:30N 29°34' W 090°44'1 2.6
2018-May-06 22:00N 29°34' W 090°43'3 5.5
2018-May-06 21:30N 29°31' W 090°42'3 5.6
2018-May-06 21:00N 29°28' W 090°43'3 0.1
2018-May-05 08:40N 29°25' W 090°44'1 5.9
2018-May-05 08:27N 29°26' W 090°43'3 6.0
2018-May-05 08:00N 29°29' W 090°43'3 6.0
2018-May-05 07:30N 29°32' W 090°42'3 5.4
2018-May-05 07:00N 29°34' W 090°43'1 2.9
2018-May-05 06:31N 29°34' W 090°45'1 1.2
2018-May-05 06:00N 29°33' W 090°45'2 4.9
2018-May-05 05:31N 29°32' W 090°47'  
Track history (hours):
 
Tides and Currents Weather Stations Pressure Air Temp Water Temp Dewpoint Dewpoint Depression Visibility Wind Speed Wind Dir Waves Ship Positions

Discovery

Owner: Central Boat Rentals, Inc, Morgan City, LA. More information available from US FCC via Universal Licensing System and Coast Guard Vessel Documentation Center.

Last reported at 2018-May-14 15:05 UTC. Time now 2018-May-26 10:16 UTC.
Position N 29°34' W 091°28'.
Warning: this ship's position is 11 days out of date.

Length 17 m; draft 2 m.

Type: Tug. MMSI: 367697020.

Date/timePositionNaut miles runAvg speedWind from/ knotsBaromVisibWave heightAir tempDewpointWater temp
2018-May-14 15:05N 29°34' W 091°28'0 0.1
2018-May-14 15:01N 29°34' W 091°28'0 0.0
2018-May-14 14:30N 29°34' W 091°28'2 0.3
2018-May-14 09:17N 29°34' W 091°30'1 2.6
2018-May-14 08:59N 29°35' W 091°30'  
2018-May-08 07:16N 29°40' W 091°06'11 0.3
2018-May-07 00:41N 29°34' W 090°56'1 5.6
2018-May-07 00:30N 29°34' W 090°55'3 5.5
2018-May-06 23:57N 29°32' W 090°52'3 5.6
2018-May-06 23:28N 29°32' W 090°49'2 5.4
2018-May-06 23:01N 29°32' W 090°46'2 4.9
2018-May-06 22:30N 29°34' W 090°44'1 2.6
2018-May-06 22:00N 29°34' W 090°43'3 5.5
2018-May-06 21:30N 29°31' W 090°42'3 5.6
2018-May-06 21:00N 29°28' W 090°43'3 0.1
2018-May-05 08:40N 29°25' W 090°44'1 5.9
2018-May-05 08:27N 29°26' W 090°43'3 6.0
2018-May-05 08:00N 29°29' W 090°43'3 6.0
2018-May-05 07:30N 29°32' W 090°42'3 5.4
2018-May-05 07:00N 29°34' W 090°43'1 2.9
2018-May-05 06:31N 29°34' W 090°45'1 1.2
2018-May-05 06:00N 29°33' W 090°45'2 4.9
2018-May-05 05:31N 29°32' W 090°47'  

Dump ship's entire track history